createdAt,value
2022-10-01T00:02:20.136Z,8.50
2022-10-01T00:04:48.199Z,8.50
2022-10-01T00:07:16.363Z,8.40
2022-10-01T00:09:44.482Z,8.40
2022-10-01T00:12:16.036Z,8.30
2022-10-01T00:14:45.574Z,8.20
2022-10-01T00:17:13.658Z,8.20
2022-10-01T00:19:41.719Z,8.20
2022-10-01T00:22:09.797Z,8.10
2022-10-01T00:24:37.938Z,8.10
2022-10-01T00:27:05.926Z,8.20
2022-10-01T00:29:34.187Z,8.20
2022-10-01T00:32:03.956Z,8.10
2022-10-01T00:34:32.210Z,8.10
2022-10-01T00:37:00.258Z,8.00
2022-10-01T00:39:28.429Z,8.00
2022-10-01T00:41:56.495Z,8.00
2022-10-01T00:44:33.584Z,8.00
2022-10-01T00:47:10.585Z,8.00
2022-10-01T00:49:40.652Z,7.90
2022-10-01T00:52:13.252Z,7.90
2022-10-01T00:54:45.157Z,7.80
2022-10-01T00:57:17.500Z,7.80
2022-10-01T00:59:47.065Z,7.80
2022-10-01T01:02:16.536Z,7.80
2022-10-01T01:04:44.924Z,7.70
2022-10-01T01:07:13.458Z,7.80
2022-10-01T01:09:46.543Z,7.80
2022-10-01T01:12:27.769Z,7.80
2022-10-01T01:15:04.893Z,7.80
2022-10-01T01:17:41.084Z,7.80
2022-10-01T01:20:23.307Z,7.70
2022-10-01T01:23:02.457Z,7.70
2022-10-01T01:25:39.273Z,8.00
2022-10-01T01:28:20.022Z,7.90
2022-10-01T01:30:51.269Z,7.80
2022-10-01T01:33:23.239Z,7.70
2022-10-01T01:35:54.114Z,7.70
2022-10-01T01:38:28.202Z,7.60
2022-10-01T01:41:01.586Z,7.70
2022-10-01T01:43:33.529Z,7.70
2022-10-01T01:46:03.813Z,7.70
2022-10-01T01:48:36.483Z,7.60
2022-10-01T01:51:12.500Z,7.60
2022-10-01T01:53:41.256Z,7.70
2022-10-01T01:56:09.722Z,7.70
2022-10-01T01:58:40.231Z,7.60
2022-10-01T02:01:09.235Z,7.60
2022-10-01T02:03:37.410Z,7.60
2022-10-01T02:06:16.919Z,7.60
2022-10-01T02:08:50.964Z,7.70
2022-10-01T02:11:27.165Z,7.60
2022-10-01T02:14:06.400Z,7.60
2022-10-01T02:16:45.558Z,7.50
2022-10-01T02:19:20.108Z,7.50
2022-10-01T02:21:57.387Z,7.40
2022-10-01T02:24:34.306Z,7.50
2022-10-01T02:27:07.842Z,7.50
2022-10-01T02:29:38.987Z,7.40
2022-10-01T02:32:08.050Z,7.40
2022-10-01T02:34:36.143Z,7.40
2022-10-01T02:37:06.357Z,7.40
2022-10-01T02:39:36.949Z,7.50
2022-10-01T02:42:07.261Z,7.40
2022-10-01T02:44:40.308Z,7.40
2022-10-01T02:47:14.233Z,7.50
2022-10-01T02:49:42.584Z,7.50
2022-10-01T02:52:18.448Z,7.40
2022-10-01T02:54:52.908Z,7.40
2022-10-01T02:57:24.989Z,7.30
2022-10-01T02:59:57.132Z,7.30
2022-10-01T03:02:25.800Z,7.30
2022-10-01T03:04:53.861Z,7.30
2022-10-01T03:07:21.954Z,7.30
2022-10-01T03:09:51.022Z,7.40
2022-10-01T03:12:19.425Z,7.40
2022-10-01T03:14:47.817Z,7.30
2022-10-01T03:17:17.769Z,7.40
2022-10-01T03:19:46.015Z,7.40
2022-10-01T03:22:16.210Z,7.50
2022-10-01T03:24:44.251Z,7.50
2022-10-01T03:27:12.321Z,7.50
2022-10-01T03:29:40.315Z,7.50
2022-10-01T03:32:08.360Z,7.50
2022-10-01T03:34:37.751Z,7.70
2022-10-01T03:37:06.041Z,7.70
2022-10-01T03:39:34.619Z,7.60
2022-10-01T03:42:02.609Z,7.50
2022-10-01T03:44:30.782Z,7.50
2022-10-01T03:46:59.295Z,7.50
2022-10-01T03:49:27.475Z,7.40
2022-10-01T03:51:56.917Z,7.40
2022-10-01T03:54:25.528Z,7.40
2022-10-01T03:56:53.484Z,7.50
2022-10-01T03:59:21.601Z,7.50
2022-10-01T04:01:49.999Z,7.50
2022-10-01T04:04:18.085Z,7.50
2022-10-01T04:06:46.141Z,7.50
2022-10-01T04:09:15.634Z,7.50
2022-10-01T04:11:43.792Z,7.40
2022-10-01T04:14:11.862Z,7.50
2022-10-01T04:16:39.886Z,7.60
2022-10-01T04:19:07.971Z,7.60
2022-10-01T04:21:37.061Z,7.60
2022-10-01T04:24:05.775Z,7.60
2022-10-01T04:26:35.280Z,7.60
2022-10-01T04:29:03.298Z,7.60
2022-10-01T04:31:35.107Z,7.50
2022-10-01T04:34:04.254Z,7.50
2022-10-01T04:36:32.284Z,7.40
2022-10-01T04:39:02.454Z,7.40
2022-10-01T04:41:31.982Z,7.40
2022-10-01T04:44:01.970Z,7.40
2022-10-01T04:46:30.911Z,7.50
2022-10-01T04:48:59.334Z,7.60
2022-10-01T04:51:27.379Z,7.60
2022-10-01T04:53:55.661Z,7.60
2022-10-01T04:56:23.732Z,7.60
2022-10-01T04:58:51.940Z,7.60
2022-10-01T05:01:21.418Z,7.60
2022-10-01T05:03:49.609Z,7.60
2022-10-01T05:06:17.685Z,7.60
2022-10-01T05:08:45.710Z,7.50
2022-10-01T05:11:13.716Z,7.60
2022-10-01T05:13:41.895Z,7.60
2022-10-01T05:16:10.479Z,7.60
2022-10-01T05:18:40.556Z,7.70
2022-10-01T05:21:10.036Z,7.80
2022-10-01T05:23:38.387Z,7.90
2022-10-01T05:26:07.506Z,7.80
2022-10-01T05:28:36.271Z,7.80
2022-10-01T05:31:05.333Z,7.90
2022-10-01T05:33:34.196Z,7.90
2022-10-01T05:36:04.071Z,7.90
2022-10-01T05:38:32.663Z,8.00
2022-10-01T05:41:00.743Z,8.00
2022-10-01T05:43:28.799Z,8.00
2022-10-01T05:45:56.912Z,8.10
2022-10-01T05:48:25.057Z,8.10
2022-10-01T05:50:54.499Z,8.10
2022-10-01T05:53:24.115Z,8.20
2022-10-01T05:55:53.619Z,8.40
2022-10-01T05:58:22.048Z,8.60
2022-10-01T06:00:50.127Z,8.60
2022-10-01T06:03:18.235Z,8.80
2022-10-01T06:05:46.282Z,8.80
2022-10-01T06:08:14.941Z,9.00
2022-10-01T06:10:45.044Z,9.10
2022-10-01T06:13:17.890Z,9.10
2022-10-01T06:15:47.379Z,9.20
2022-10-01T06:18:15.573Z,9.30
2022-10-01T06:20:43.576Z,9.50
2022-10-01T06:23:13.623Z,9.50
2022-10-01T06:25:42.809Z,9.80
2022-10-01T06:28:14.772Z,9.80
2022-10-01T06:30:43.664Z,10.10
2022-10-01T06:33:14.419Z,10.30
2022-10-01T06:35:44.346Z,10.50
2022-10-01T06:38:12.913Z,10.70
2022-10-01T06:40:41.723Z,10.90
2022-10-01T06:43:11.647Z,11.00
2022-10-01T06:45:43.015Z,11.00
2022-10-01T06:48:15.076Z,11.10
2022-10-01T06:50:44.657Z,11.20
2022-10-01T06:53:12.834Z,11.20
2022-10-01T06:55:41.579Z,11.30
2022-10-01T06:58:14.242Z,11.30
2022-10-01T07:00:43.243Z,11.30
2022-10-01T07:03:15.877Z,11.40
2022-10-01T07:05:44.067Z,11.40
2022-10-01T07:08:12.205Z,11.40
2022-10-01T07:10:40.482Z,11.60
2022-10-01T07:13:09.659Z,11.50
2022-10-01T07:15:39.613Z,11.60
2022-10-01T07:18:09.834Z,11.60
2022-10-01T07:20:39.883Z,11.70
2022-10-01T07:23:09.209Z,11.70
2022-10-01T07:25:38.904Z,11.70
2022-10-01T07:28:08.709Z,11.70
2022-10-01T07:30:40.460Z,11.70
2022-10-01T07:33:08.525Z,11.70
2022-10-01T07:35:38.172Z,11.70
2022-10-01T07:38:08.120Z,11.70
2022-10-01T07:40:36.331Z,11.70
2022-10-01T07:43:04.386Z,11.70
2022-10-01T07:45:32.589Z,11.70
2022-10-01T07:48:04.391Z,11.70
2022-10-01T07:50:32.695Z,11.80
2022-10-01T07:53:01.248Z,11.70
2022-10-01T07:55:32.816Z,11.80
2022-10-01T07:58:02.284Z,11.70
2022-10-01T08:00:33.083Z,11.80
2022-10-01T08:03:02.954Z,11.80
2022-10-01T08:05:33.255Z,11.80
2022-10-01T08:08:02.298Z,11.80
2022-10-01T08:10:30.805Z,11.80
2022-10-01T08:13:06.224Z,11.80
2022-10-01T08:15:34.276Z,11.80
2022-10-01T08:18:04.197Z,11.70
2022-10-01T08:20:32.766Z,11.80
2022-10-01T08:23:04.071Z,11.80
2022-10-01T08:25:32.207Z,11.80
2022-10-01T08:28:01.491Z,11.80
2022-10-01T08:30:30.157Z,11.90
2022-10-01T08:32:58.314Z,11.90
2022-10-01T08:35:28.889Z,11.80
2022-10-01T08:37:57.263Z,11.90
2022-10-01T08:40:25.633Z,11.90
2022-10-01T08:43:00.111Z,11.80
2022-10-01T08:45:30.754Z,11.80
2022-10-01T08:48:04.795Z,11.80
2022-10-01T08:50:53.785Z,11.80
2022-10-01T08:53:31.458Z,11.80
2022-10-01T08:56:00.958Z,11.80
2022-10-01T08:58:38.244Z,11.80
2022-10-01T09:01:06.501Z,11.90
2022-10-01T09:03:35.544Z,11.90
2022-10-01T09:06:20.282Z,11.90
2022-10-01T09:09:07.201Z,12.00
2022-10-01T09:11:47.604Z,12.00
2022-10-01T09:14:37.792Z,12.10
2022-10-01T09:17:11.898Z,12.10
2022-10-01T09:19:55.037Z,12.20
2022-10-01T09:22:35.681Z,12.10
2022-10-01T09:25:13.016Z,12.10
2022-10-01T09:27:41.769Z,12.10
2022-10-01T09:30:14.792Z,12.20
2022-10-01T09:32:46.853Z,12.10
2022-10-01T09:35:28.414Z,12.10
2022-10-01T09:38:03.390Z,12.10
2022-10-01T09:40:37.089Z,12.10
2022-10-01T09:43:08.162Z,12.20
2022-10-01T09:45:38.090Z,12.20
2022-10-01T09:48:18.231Z,12.10
2022-10-01T09:50:58.308Z,12.20
2022-10-01T09:53:34.905Z,12.20
2022-10-01T09:56:09.405Z,12.20
2022-10-01T09:58:38.777Z,12.20
2022-10-01T10:01:18.669Z,12.10
2022-10-01T10:03:55.936Z,12.10
2022-10-01T10:06:28.216Z,12.00
2022-10-01T10:08:59.302Z,11.90
2022-10-01T10:11:29.898Z,11.90
2022-10-01T10:14:00.723Z,11.80
2022-10-01T10:16:31.530Z,11.80
2022-10-01T10:19:03.845Z,11.80
2022-10-01T10:21:35.057Z,11.70
2022-10-01T10:24:07.301Z,11.70
2022-10-01T10:26:39.019Z,11.70
2022-10-01T10:29:09.595Z,11.60
2022-10-01T10:31:43.018Z,11.70
2022-10-01T10:34:15.618Z,11.60
2022-10-01T10:36:45.137Z,11.50
2022-10-01T10:39:21.589Z,11.50
2022-10-01T10:41:51.827Z,11.60
2022-10-01T10:44:22.297Z,11.60
2022-10-01T10:46:52.114Z,11.60
2022-10-01T10:49:26.280Z,11.60
2022-10-01T10:51:55.872Z,11.60
2022-10-01T10:54:33.154Z,11.50
2022-10-01T10:57:03.302Z,11.60
2022-10-01T10:59:33.485Z,11.60
2022-10-01T11:02:05.634Z,11.60
2022-10-01T11:04:41.140Z,11.60
2022-10-01T11:07:10.477Z,11.60
2022-10-01T11:10:17.218Z,11.70
2022-10-01T11:12:58.591Z,11.70
2022-10-01T11:15:37.496Z,11.70
2022-10-01T11:18:49.944Z,11.90
2022-10-01T11:21:36.373Z,11.70
2022-10-01T11:24:33.210Z,11.80
2022-10-01T11:27:12.318Z,11.90
2022-10-01T11:29:55.494Z,12.00
2022-10-01T11:32:31.211Z,12.00
2022-10-01T11:35:26.839Z,12.20
2022-10-01T11:38:10.694Z,12.20
2022-10-01T11:40:43.810Z,12.20
2022-10-01T11:43:19.296Z,12.00
2022-10-01T11:45:52.393Z,12.00
2022-10-01T11:48:26.543Z,12.00
2022-10-01T11:50:59.066Z,12.00
2022-10-01T11:53:33.458Z,12.10
2022-10-01T11:56:22.649Z,12.10
2022-10-01T11:58:56.809Z,12.20
2022-10-01T12:01:34.537Z,12.20
2022-10-01T12:04:14.688Z,12.30
2022-10-01T12:06:53.143Z,12.30
2022-10-01T12:09:28.297Z,12.30
2022-10-01T12:12:02.306Z,12.40
2022-10-01T12:14:38.917Z,12.30
2022-10-01T12:17:14.317Z,12.40
2022-10-01T12:19:46.793Z,12.40
2022-10-01T12:22:24.348Z,12.40
2022-10-01T12:24:53.511Z,12.50
2022-10-01T12:27:39.908Z,12.50
2022-10-01T12:30:12.547Z,12.50
2022-10-01T12:32:58.963Z,12.60
2022-10-01T12:35:42.232Z,12.70
2022-10-01T12:38:23.603Z,12.80
2022-10-01T12:40:59.598Z,12.90
2022-10-01T12:43:56.228Z,12.90
2022-10-01T12:46:37.820Z,13.10
2022-10-01T12:49:15.003Z,13.10
2022-10-01T12:51:46.062Z,13.20
2022-10-01T12:54:41.895Z,13.30
2022-10-01T12:57:22.458Z,13.40
2022-10-01T13:00:03.616Z,13.50
2022-10-01T13:02:55.847Z,13.60
2022-10-01T13:05:33.123Z,13.70
2022-10-01T13:08:20.876Z,13.80
2022-10-01T13:10:57.082Z,13.90
2022-10-01T13:13:26.845Z,14.30
2022-10-01T13:16:01.065Z,14.20
2022-10-01T13:18:41.650Z,14.20
2022-10-01T13:21:19.414Z,14.30
2022-10-01T13:23:53.486Z,14.30
2022-10-01T13:26:27.714Z,14.40
2022-10-01T13:29:07.809Z,14.30
2022-10-01T13:31:52.095Z,14.30
2022-10-01T13:34:33.274Z,14.30
2022-10-01T13:37:14.638Z,14.40
2022-10-01T13:39:43.612Z,14.40
2022-10-01T13:42:27.553Z,14.40
2022-10-01T13:44:58.148Z,14.40
2022-10-01T13:47:27.916Z,14.40
2022-10-01T13:50:00.476Z,14.30
2022-10-01T13:52:28.750Z,14.30
2022-10-01T13:54:58.892Z,14.30
2022-10-01T13:57:34.249Z,14.30
2022-10-01T14:00:07.089Z,14.30
2022-10-01T14:02:38.026Z,14.30
2022-10-01T14:05:28.396Z,14.30
2022-10-01T14:08:11.567Z,14.40
2022-10-01T14:11:02.479Z,14.40
2022-10-01T14:13:50.159Z,14.40
2022-10-01T14:16:19.076Z,14.40
2022-10-01T14:18:50.830Z,14.50
2022-10-01T14:21:32.792Z,14.50
2022-10-01T14:24:08.789Z,14.40
2022-10-01T14:26:43.690Z,14.40
2022-10-01T14:29:22.604Z,14.30
2022-10-01T14:32:02.650Z,14.30
2022-10-01T14:34:44.113Z,14.30
2022-10-01T14:37:17.541Z,14.50
2022-10-01T14:39:46.153Z,14.30
2022-10-01T14:42:17.645Z,14.20
2022-10-01T14:44:47.297Z,14.20
2022-10-01T14:47:20.343Z,14.20
2022-10-01T14:49:49.153Z,14.30
2022-10-01T14:52:22.510Z,14.20
2022-10-01T14:54:58.163Z,14.20
2022-10-01T14:57:30.487Z,14.20
2022-10-01T15:00:01.432Z,14.20
2022-10-01T15:02:29.974Z,14.20
2022-10-01T15:04:58.807Z,14.20
2022-10-01T15:07:36.275Z,14.10
2022-10-01T15:10:08.455Z,14.30
2022-10-01T15:12:41.389Z,14.10
2022-10-01T15:15:39.274Z,14.10
2022-10-01T15:18:08.939Z,14.10
2022-10-01T15:20:37.029Z,14.10
2022-10-01T15:23:07.437Z,14.10
2022-10-01T15:25:35.452Z,14.00
2022-10-01T15:28:14.041Z,14.20
2022-10-01T15:30:43.230Z,14.10
2022-10-01T15:33:22.299Z,14.20
2022-10-01T15:35:50.682Z,14.00
2022-10-01T15:38:20.093Z,14.00
2022-10-01T15:41:05.007Z,14.00
2022-10-01T15:43:42.643Z,14.00
2022-10-01T15:46:16.470Z,14.00
2022-10-01T15:48:45.004Z,13.90
2022-10-01T15:51:24.868Z,14.00
2022-10-01T15:53:55.201Z,14.00
2022-10-01T15:56:25.793Z,14.00
2022-10-01T15:58:58.105Z,14.00
2022-10-01T16:01:29.072Z,14.00
2022-10-01T16:04:03.479Z,14.00
2022-10-01T16:06:37.694Z,14.00
2022-10-01T16:09:13.165Z,13.90
2022-10-01T16:11:56.786Z,14.00
2022-10-01T16:14:37.797Z,14.00
2022-10-01T16:17:28.032Z,14.00
2022-10-01T16:19:58.267Z,13.90
2022-10-01T16:22:29.191Z,13.90
2022-10-01T16:25:01.170Z,14.00
2022-10-01T16:27:31.419Z,14.00
2022-10-01T16:30:05.328Z,14.10
2022-10-01T16:32:34.419Z,14.00
2022-10-01T16:35:20.789Z,14.00
2022-10-01T16:37:50.272Z,14.00
2022-10-01T16:40:22.186Z,14.00
2022-10-01T16:42:51.656Z,14.00
2022-10-01T16:45:22.670Z,14.00
2022-10-01T16:47:51.238Z,13.90
2022-10-01T16:50:21.447Z,13.90
2022-10-01T16:52:53.093Z,13.90
2022-10-01T16:55:24.122Z,13.90
2022-10-01T16:57:54.578Z,13.80
2022-10-01T17:00:24.568Z,13.80
2022-10-01T17:02:53.051Z,13.70
2022-10-01T17:05:23.357Z,13.80
2022-10-01T17:07:51.852Z,13.70
2022-10-01T17:10:23.470Z,13.70
2022-10-01T17:12:51.718Z,13.70
2022-10-01T17:15:22.404Z,13.70
2022-10-01T17:17:50.501Z,13.70
2022-10-01T17:20:19.640Z,13.60
2022-10-01T17:22:47.631Z,13.70
2022-10-01T17:25:16.512Z,13.60
2022-10-01T17:27:46.039Z,13.60
2022-10-01T17:30:14.545Z,13.60
2022-10-01T17:32:43.711Z,13.60
2022-10-01T17:35:13.047Z,13.60
2022-10-01T17:37:41.431Z,13.70
2022-10-01T17:40:11.378Z,13.70
2022-10-01T17:42:39.800Z,13.70
2022-10-01T17:45:12.690Z,13.70
2022-10-01T17:47:44.903Z,13.60
2022-10-01T17:50:13.293Z,13.60
2022-10-01T17:52:41.920Z,13.60
2022-10-01T17:55:12.129Z,13.60
2022-10-01T17:57:40.457Z,13.60
2022-10-01T18:00:11.234Z,13.60
2022-10-01T18:02:42.670Z,13.60
2022-10-01T18:05:12.812Z,13.60
2022-10-01T18:07:41.028Z,13.60
2022-10-01T18:10:11.441Z,13.60
2022-10-01T18:12:39.552Z,13.60
2022-10-01T18:15:10.622Z,13.60
2022-10-01T18:17:43.477Z,13.60
2022-10-01T18:20:20.032Z,13.60
2022-10-01T18:22:48.229Z,13.60
2022-10-01T18:25:18.117Z,13.60
2022-10-01T18:27:49.890Z,13.60
2022-10-01T18:30:20.291Z,13.60
2022-10-01T18:32:56.873Z,13.50
2022-10-01T18:35:31.177Z,13.60
2022-10-01T18:38:04.072Z,13.60
2022-10-01T18:40:37.941Z,13.60
2022-10-01T18:43:10.022Z,13.60
2022-10-01T18:46:09.349Z,13.60
2022-10-01T18:48:54.413Z,13.70
2022-10-01T18:51:31.121Z,13.70
2022-10-01T18:54:17.992Z,13.70
2022-10-01T18:56:55.328Z,13.70
2022-10-01T18:59:41.161Z,13.70
2022-10-01T19:02:23.015Z,13.90
2022-10-01T19:05:19.293Z,13.70
2022-10-01T19:07:59.364Z,13.60
2022-10-01T19:10:34.347Z,13.60
2022-10-01T19:13:15.968Z,13.60
2022-10-01T19:15:57.013Z,13.50
2022-10-01T19:18:50.520Z,13.40
2022-10-01T19:21:27.517Z,13.40
2022-10-01T19:24:21.385Z,13.40
2022-10-01T19:26:59.004Z,13.50
2022-10-01T19:29:45.500Z,13.50
2022-10-01T19:32:17.524Z,13.40
2022-10-01T19:34:53.062Z,13.30
2022-10-01T19:37:30.551Z,13.30
2022-10-01T19:40:06.206Z,13.30
2022-10-01T19:42:44.374Z,13.30
2022-10-01T19:45:24.235Z,13.30
2022-10-01T19:48:02.440Z,13.40
2022-10-01T19:50:35.709Z,13.30
2022-10-01T19:53:05.882Z,13.30
2022-10-01T19:55:38.962Z,13.30
2022-10-01T19:58:17.834Z,13.30
2022-10-01T20:00:48.531Z,13.30
2022-10-01T20:03:25.870Z,13.30
2022-10-01T20:05:59.424Z,13.30
2022-10-01T20:08:36.353Z,13.30
2022-10-01T20:11:15.937Z,13.20
2022-10-01T20:14:34.443Z,13.20
2022-10-01T20:17:07.474Z,13.10
2022-10-01T20:19:41.445Z,13.10
2022-10-01T20:22:20.640Z,13.10
2022-10-01T20:25:00.373Z,13.10
2022-10-01T20:27:38.455Z,13.10
2022-10-01T20:30:09.203Z,13.10
2022-10-01T20:32:47.548Z,13.10
2022-10-01T20:35:28.631Z,13.00
2022-10-01T20:38:06.802Z,13.10
2022-10-01T20:40:41.146Z,13.20
2022-10-01T20:43:17.483Z,13.10
2022-10-01T20:45:52.604Z,13.00
2022-10-01T20:48:25.395Z,13.00
2022-10-01T20:50:58.504Z,13.00
2022-10-01T20:53:36.021Z,13.00
2022-10-01T20:56:10.837Z,12.90
2022-10-01T20:58:44.504Z,12.90
2022-10-01T21:01:18.011Z,12.80
2022-10-01T21:03:50.651Z,12.80
2022-10-01T21:06:25.757Z,12.90
2022-10-01T21:09:01.416Z,12.90
2022-10-01T21:11:33.988Z,12.80
2022-10-01T21:14:11.172Z,12.80
2022-10-01T21:17:03.396Z,13.00
2022-10-01T21:19:56.854Z,12.80
2022-10-01T21:22:37.724Z,12.90
2022-10-01T21:25:15.763Z,13.20
2022-10-01T21:28:01.537Z,12.90
2022-10-01T21:30:36.461Z,12.90
2022-10-01T21:33:24.641Z,13.00
2022-10-01T21:35:57.533Z,13.00
2022-10-01T21:38:32.648Z,12.90
2022-10-01T21:41:28.705Z,13.00
2022-10-01T21:44:24.718Z,13.10
2022-10-01T21:46:59.890Z,13.10
2022-10-01T21:49:41.867Z,13.10
2022-10-01T21:52:22.307Z,13.10
2022-10-01T21:55:13.287Z,13.00
2022-10-01T21:58:03.219Z,13.10
2022-10-01T22:00:32.825Z,13.10
2022-10-01T22:03:13.607Z,13.10
2022-10-01T22:05:50.423Z,13.10
2022-10-01T22:08:30.388Z,13.10
2022-10-01T22:11:01.725Z,13.10
2022-10-01T22:13:34.322Z,13.10
2022-10-01T22:16:08.128Z,13.10
2022-10-01T22:18:41.394Z,13.10
2022-10-01T22:21:13.399Z,13.10
2022-10-01T22:23:47.896Z,13.10
2022-10-01T22:26:20.761Z,13.10
2022-10-01T22:28:53.873Z,13.20
2022-10-01T22:31:26.919Z,13.00
2022-10-01T22:33:59.572Z,13.10
2022-10-01T22:36:33.583Z,13.10
2022-10-01T22:39:05.580Z,13.00
2022-10-01T22:41:37.011Z,13.20
2022-10-01T22:44:14.079Z,13.20
2022-10-01T22:47:20.819Z,13.20
2022-10-01T22:50:12.436Z,13.20
2022-10-01T22:52:46.740Z,13.30
2022-10-01T22:55:29.644Z,13.30
2022-10-01T22:58:17.737Z,13.30
2022-10-01T23:00:54.964Z,13.50
2022-10-01T23:03:35.510Z,13.40
2022-10-01T23:06:10.214Z,13.40
2022-10-01T23:08:43.878Z,13.40
2022-10-01T23:11:20.654Z,13.40
2022-10-01T23:13:57.755Z,13.40
2022-10-01T23:16:35.568Z,13.30
2022-10-01T23:19:15.069Z,13.30
2022-10-01T23:21:51.439Z,13.20
2022-10-01T23:24:32.143Z,13.20
2022-10-01T23:27:08.930Z,13.10
2022-10-01T23:30:04.447Z,13.10
2022-10-01T23:33:00.640Z,13.20
2022-10-01T23:35:42.717Z,13.10
2022-10-01T23:38:30.164Z,13.10
2022-10-01T23:41:02.382Z,13.10
2022-10-01T23:43:35.514Z,13.10
2022-10-01T23:46:08.350Z,13.10
2022-10-01T23:48:43.969Z,13.10
2022-10-01T23:51:18.555Z,13.10
2022-10-01T23:53:53.010Z,13.10
2022-10-01T23:56:43.010Z,13.10
2022-10-01T23:59:17.272Z,13.10
